createdAt,value
2018-12-09T00:01:14.163Z,98385.19
2018-12-09T00:03:41.674Z,98381.62
2018-12-09T00:06:09.459Z,98379.17
2018-12-09T00:08:37.001Z,98356.61
2018-12-09T00:11:04.659Z,98354.20
2018-12-09T00:13:32.182Z,98366.47
2018-12-09T00:15:59.898Z,98346.68
2018-12-09T00:18:27.520Z,98348.73
2018-12-09T00:20:55.015Z,98338.83
2018-12-09T00:23:22.502Z,98329.62
2018-12-09T00:25:50.000Z,98332.50
2018-12-09T00:28:17.643Z,98327.66
2018-12-09T00:30:45.201Z,98321.77
2018-12-09T00:33:12.780Z,98316.39
2018-12-09T00:35:40.324Z,98310.30
2018-12-09T00:38:07.931Z,98308.21
2018-12-09T00:40:35.498Z,98302.44
2018-12-09T00:43:03.111Z,98299.44
2018-12-09T00:45:31.199Z,98296.42
2018-12-09T00:47:58.831Z,98301.56
2018-12-09T00:50:26.366Z,98302.72
2018-12-09T00:52:55.502Z,98309.08
2018-12-09T00:55:23.054Z,98303.23
2018-12-09T00:57:51.252Z,98321.67
2018-12-09T01:00:18.954Z,98326.20
2018-12-09T01:02:46.509Z,98320.64
2018-12-09T01:05:14.145Z,98321.03
2018-12-09T01:07:41.838Z,98324.48
2018-12-09T01:10:09.380Z,98319.40
2018-12-09T01:12:37.865Z,98330.22
2018-12-09T01:15:05.645Z,98334.26
2018-12-09T01:17:33.843Z,98327.13
2018-12-09T01:20:01.331Z,98336.14
2018-12-09T01:22:29.548Z,98331.91
2018-12-09T01:24:57.137Z,98325.17
2018-12-09T01:27:25.094Z,98325.17
2018-12-09T01:29:54.349Z,98319.20
2018-12-09T01:32:22.692Z,98333.81
2018-12-09T01:34:50.218Z,98331.25
2018-12-09T01:37:18.481Z,98336.86
2018-12-09T01:39:46.017Z,98348.19
2018-12-09T01:42:13.678Z,98354.59
2018-12-09T01:44:41.177Z,98322.16
2018-12-09T01:47:08.700Z,98340.55
2018-12-09T01:49:36.286Z,98344.39
2018-12-09T01:52:04.360Z,98349.59
2018-12-09T01:54:31.882Z,98348.31
2018-12-09T01:56:59.376Z,98364.72
2018-12-09T01:59:26.928Z,98357.88
2018-12-09T02:01:54.564Z,98368.09
2018-12-09T02:04:22.343Z,98359.84
2018-12-09T02:06:49.891Z,98362.16
2018-12-09T02:09:17.376Z,98349.50
2018-12-09T02:11:44.963Z,98345.06
2018-12-09T02:14:13.096Z,98356.27
2018-12-09T02:16:40.894Z,98361.77
2018-12-09T02:19:16.548Z,98353.34
2018-12-09T02:21:44.559Z,98357.59
2018-12-09T02:24:12.544Z,98357.98
2018-12-09T02:26:42.760Z,98356.63
2018-12-09T02:29:10.373Z,98369.67
2018-12-09T02:31:37.890Z,98382.89
2018-12-09T02:34:05.441Z,98425.00
2018-12-09T02:36:33.850Z,98408.05
2018-12-09T02:39:01.482Z,98420.23
2018-12-09T02:41:29.941Z,98420.59
2018-12-09T02:43:57.438Z,98416.30
2018-12-09T02:46:26.461Z,98403.75
2018-12-09T02:48:54.059Z,98410.77
2018-12-09T02:51:21.746Z,98386.58
2018-12-09T02:53:49.461Z,98409.83
2018-12-09T02:56:17.016Z,98415.56
2018-12-09T02:58:44.607Z,98418.19
2018-12-09T03:01:12.189Z,98400.75
2018-12-09T03:03:39.791Z,98405.56
2018-12-09T03:06:07.294Z,98407.75
2018-12-09T03:08:34.820Z,98405.97
2018-12-09T03:11:02.901Z,98412.33
2018-12-09T03:13:30.574Z,98401.25
2018-12-09T03:15:58.722Z,98405.97
2018-12-09T03:18:26.274Z,98413.91
2018-12-09T03:20:53.867Z,98410.98
2018-12-09T03:23:21.880Z,98407.34
2018-12-09T03:25:49.448Z,98415.42
2018-12-09T03:28:17.287Z,98408.92
2018-12-09T03:30:45.232Z,98420.41
2018-12-09T03:33:12.889Z,98403.33
2018-12-09T03:35:40.608Z,98415.63
2018-12-09T03:38:08.519Z,98428.69
2018-12-09T03:40:36.497Z,98418.08
2018-12-09T03:43:04.040Z,98430.84
2018-12-09T03:45:31.699Z,98433.07
2018-12-09T03:47:59.195Z,98423.70
2018-12-09T03:50:26.938Z,98426.94
2018-12-09T03:52:54.577Z,98422.42
2018-12-09T03:55:22.173Z,98427.04
2018-12-09T03:57:49.993Z,98432.42
2018-12-09T04:00:18.207Z,98433.88
2018-12-09T04:02:46.280Z,98434.92
2018-12-09T04:05:13.919Z,98423.22
2018-12-09T04:07:41.513Z,98425.78
2018-12-09T04:10:09.635Z,98417.15
2018-12-09T04:12:38.238Z,98434.23
2018-12-09T04:15:06.927Z,98421.42
2018-12-09T04:17:34.548Z,98428.53
2018-12-09T04:20:02.022Z,98435.77
2018-12-09T04:22:29.718Z,98427.44
2018-12-09T04:24:57.872Z,98424.38
2018-12-09T04:27:26.646Z,98443.14
2018-12-09T04:29:54.167Z,98436.70
2018-12-09T04:32:21.681Z,98459.35
2018-12-09T04:34:50.827Z,98443.11
2018-12-09T04:37:19.269Z,98458.84
2018-12-09T04:39:46.868Z,98448.89
2018-12-09T04:42:14.387Z,98448.56
2018-12-09T04:44:42.514Z,98437.51
2018-12-09T04:47:10.416Z,98453.65
2018-12-09T04:49:37.947Z,98449.33
2018-12-09T04:52:05.471Z,98456.20
2018-12-09T04:54:33.007Z,98443.44
2018-12-09T04:57:00.627Z,98449.41
2018-12-09T04:59:31.407Z,98437.33
2018-12-09T05:01:59.028Z,98451.42
2018-12-09T05:04:26.560Z,98450.91
2018-12-09T05:06:54.270Z,98455.66
2018-12-09T05:09:21.749Z,98456.58
2018-12-09T05:11:49.680Z,98463.53
2018-12-09T05:14:17.202Z,98467.08
2018-12-09T05:16:44.686Z,98463.44
2018-12-09T05:19:12.282Z,98469.34
2018-12-09T05:21:39.809Z,98462.50
2018-12-09T05:24:07.783Z,98460.00
2018-12-09T05:26:36.237Z,98469.30
2018-12-09T05:29:03.804Z,98485.95
2018-12-09T05:31:31.396Z,98479.21
2018-12-09T05:33:58.914Z,98489.09
2018-12-09T05:36:27.681Z,98498.36
2018-12-09T05:38:55.896Z,98498.39
2018-12-09T05:41:23.399Z,98511.45
2018-12-09T05:43:50.927Z,98517.17
2018-12-09T05:46:18.856Z,98528.83
2018-12-09T05:48:46.858Z,98530.51
2018-12-09T05:51:15.263Z,98537.66
2018-12-09T05:53:42.792Z,98543.97
2018-12-09T05:56:10.323Z,98536.72
2018-12-09T05:58:37.848Z,98542.03
2018-12-09T06:01:06.491Z,98545.12
2018-12-09T06:03:34.052Z,98558.98
2018-12-09T06:06:01.630Z,98552.61
2018-12-09T06:08:29.810Z,98564.78
2018-12-09T06:10:57.394Z,98558.60
2018-12-09T06:13:25.554Z,98552.92
2018-12-09T06:15:54.293Z,98570.16
2018-12-09T06:18:21.836Z,98577.70
2018-12-09T06:20:49.330Z,98587.09
2018-12-09T06:23:18.444Z,98590.48
2018-12-09T06:25:46.353Z,98594.44
2018-12-09T06:28:14.195Z,98577.98
2018-12-09T06:30:41.817Z,98592.31
2018-12-09T06:33:09.324Z,98591.58
2018-12-09T06:35:37.783Z,98598.84
2018-12-09T06:38:05.644Z,98602.88
2018-12-09T06:40:34.076Z,98613.48
2018-12-09T06:43:01.602Z,98625.09
2018-12-09T06:45:29.084Z,98633.28
2018-12-09T06:47:56.615Z,98617.64
2018-12-09T06:50:24.464Z,98614.70
2018-12-09T06:52:51.987Z,98619.30
2018-12-09T06:55:20.419Z,98638.91
2018-12-09T06:57:47.920Z,98632.52
2018-12-09T07:00:15.654Z,98638.47
2018-12-09T07:02:44.080Z,98626.74
2018-12-09T07:05:11.841Z,98635.00
2018-12-09T07:07:39.402Z,98646.07
2018-12-09T07:10:07.509Z,98647.19
2018-12-09T07:12:35.091Z,98646.41
2018-12-09T07:15:02.653Z,98651.45
2018-12-09T07:17:30.382Z,98664.30
2018-12-09T07:19:59.298Z,98674.13
2018-12-09T07:22:27.093Z,98672.47
2018-12-09T07:24:54.679Z,98678.69
2018-12-09T07:27:22.199Z,98675.64
2018-12-09T07:29:50.103Z,98698.98
2018-12-09T07:32:17.671Z,98688.44
2018-12-09T07:34:45.179Z,98689.59
2018-12-09T07:37:12.709Z,98695.55
2018-12-09T07:39:40.235Z,98707.94
2018-12-09T07:42:07.796Z,98712.53
2018-12-09T07:44:35.312Z,98714.56
2018-12-09T07:47:02.896Z,98732.12
2018-12-09T07:49:30.389Z,98713.53
2018-12-09T07:51:57.921Z,98731.42
2018-12-09T07:54:25.449Z,98731.27
2018-12-09T07:56:53.886Z,98730.41
2018-12-09T07:59:21.435Z,98738.48
2018-12-09T08:01:48.927Z,98736.72
2018-12-09T08:04:16.978Z,98745.83
2018-12-09T08:06:44.460Z,98743.28
2018-12-09T08:09:11.993Z,98744.89
2018-12-09T08:11:40.342Z,98747.52
2018-12-09T08:14:08.123Z,98749.73
2018-12-09T08:16:36.345Z,98744.39
2018-12-09T08:19:04.566Z,98748.99
2018-12-09T08:21:32.129Z,98759.72
2018-12-09T08:24:01.386Z,98767.46
2018-12-09T08:26:29.037Z,98775.08
2018-12-09T08:28:56.613Z,98784.08
2018-12-09T08:31:24.942Z,98790.75
2018-12-09T08:33:52.847Z,98781.28
2018-12-09T08:36:20.350Z,98787.48
2018-12-09T08:38:48.786Z,98790.52
2018-12-09T08:41:16.334Z,98799.71
2018-12-09T08:43:43.836Z,98789.55
2018-12-09T08:46:11.430Z,98789.80
2018-12-09T08:48:38.958Z,98801.73
2018-12-09T08:51:06.548Z,98794.64
2018-12-09T08:53:34.165Z,98784.63
2018-12-09T08:56:01.741Z,98792.62
2018-12-09T08:58:29.236Z,98790.57
2018-12-09T09:00:57.203Z,98802.00
2018-12-09T09:03:24.769Z,98803.46
2018-12-09T09:05:52.312Z,98804.58
2018-12-09T09:08:19.880Z,98817.02
2018-12-09T09:10:47.420Z,98812.41
2018-12-09T09:13:14.984Z,98819.77
2018-12-09T09:15:42.699Z,98823.69
2018-12-09T09:18:10.938Z,98828.75
2018-12-09T09:20:38.455Z,98830.53
2018-12-09T09:23:05.994Z,98831.45
2018-12-09T09:25:33.497Z,98831.03
2018-12-09T09:28:01.044Z,98839.45
2018-12-09T09:30:28.526Z,98842.63
2018-12-09T09:32:56.011Z,98848.80
2018-12-09T09:35:23.658Z,98854.32
2018-12-09T09:37:51.211Z,98863.65
2018-12-09T09:40:18.776Z,98864.50
2018-12-09T09:42:46.295Z,98860.81
2018-12-09T09:45:13.919Z,98866.00
2018-12-09T09:47:41.579Z,98871.05
2018-12-09T09:50:09.109Z,98870.87
2018-12-09T09:52:36.641Z,98888.01
2018-12-09T09:55:04.721Z,98882.80
2018-12-09T09:57:32.280Z,98889.63
2018-12-09T09:59:59.876Z,98886.64
2018-12-09T10:02:27.469Z,98903.74
2018-12-09T10:04:54.999Z,98904.13
2018-12-09T10:07:22.489Z,98914.28
2018-12-09T10:09:50.562Z,98901.84
2018-12-09T10:12:18.412Z,98898.44
2018-12-09T10:14:46.068Z,98898.06
2018-12-09T10:17:13.613Z,98909.42
2018-12-09T10:19:41.142Z,98913.61
2018-12-09T10:22:08.691Z,98925.53
2018-12-09T10:24:36.226Z,98922.23
2018-12-09T10:27:03.767Z,98932.42
2018-12-09T10:29:31.430Z,98925.36
2018-12-09T10:31:58.896Z,98921.87
2018-12-09T10:34:26.404Z,98925.75
2018-12-09T10:36:54.018Z,98930.75
2018-12-09T10:39:21.921Z,98943.47
2018-12-09T10:41:49.432Z,98930.94
2018-12-09T10:44:16.938Z,98933.36
2018-12-09T10:46:44.516Z,98938.66
2018-12-09T10:49:13.615Z,98931.26
2018-12-09T10:51:41.254Z,98937.15
2018-12-09T10:54:08.922Z,98938.20
2018-12-09T10:56:36.547Z,98939.75
2018-12-09T10:59:04.221Z,98934.08
2018-12-09T11:01:46.579Z,98945.52
2018-12-09T11:04:14.522Z,98940.17
2018-12-09T11:06:42.302Z,98939.07
2018-12-09T11:09:09.869Z,98940.25
2018-12-09T11:11:37.464Z,98937.77
2018-12-09T11:14:05.029Z,98937.79
2018-12-09T11:16:32.592Z,98936.46
2018-12-09T11:19:00.364Z,98941.89
2018-12-09T11:21:30.780Z,98945.55
2018-12-09T11:23:58.028Z,98953.61
2018-12-09T11:26:26.460Z,98946.31
2018-12-09T11:28:55.100Z,98970.27
2018-12-09T11:31:22.619Z,98972.77
2018-12-09T11:33:50.267Z,98960.87
2018-12-09T11:36:17.807Z,98972.34
2018-12-09T11:38:45.327Z,98974.72
2018-12-09T11:41:12.884Z,98965.42
2018-12-09T11:43:40.411Z,98980.36
2018-12-09T11:46:07.958Z,98978.64
2018-12-09T11:48:35.464Z,98969.94
2018-12-09T11:51:03.059Z,98958.92
2018-12-09T11:53:30.707Z,98990.27
2018-12-09T11:55:58.250Z,98980.44
2018-12-09T11:58:25.894Z,98977.63
2018-12-09T12:00:53.467Z,98990.67
2018-12-09T12:03:20.945Z,98995.41
2018-12-09T12:05:48.480Z,98997.84
2018-12-09T12:08:16.054Z,98989.40
2018-12-09T12:10:45.011Z,98984.27
2018-12-09T12:13:13.002Z,98993.40
2018-12-09T12:15:42.718Z,98981.53
2018-12-09T12:18:10.900Z,98991.27
2018-12-09T12:20:38.377Z,98990.34
2018-12-09T12:23:05.961Z,99001.34
2018-12-09T12:25:33.493Z,98986.41
2018-12-09T12:28:02.010Z,99007.17
2018-12-09T12:30:29.558Z,99003.77
2018-12-09T12:32:57.095Z,98992.65
2018-12-09T12:35:24.607Z,98997.34
2018-12-09T12:37:53.076Z,98989.24
2018-12-09T12:40:20.555Z,98991.86
2018-12-09T12:42:48.070Z,98998.70
2018-12-09T12:45:16.106Z,98991.86
2018-12-09T12:47:43.658Z,98991.39
2018-12-09T12:50:12.079Z,98996.34
2018-12-09T12:52:39.728Z,99007.53
2018-12-09T12:55:09.301Z,99016.04
2018-12-09T12:57:38.722Z,99014.78
2018-12-09T13:00:13.403Z,99026.56
2018-12-09T13:02:40.906Z,99023.93
2018-12-09T13:05:09.111Z,99020.50
2018-12-09T13:07:36.767Z,99014.91
2018-12-09T13:10:05.995Z,99013.83
2018-12-09T13:12:33.501Z,99006.20
2018-12-09T13:15:01.936Z,99022.09
2018-12-09T13:17:29.432Z,99034.48
2018-12-09T13:19:57.002Z,99033.54
2018-12-09T13:22:24.725Z,99033.63
2018-12-09T13:24:52.276Z,99043.71
2018-12-09T13:27:19.832Z,99042.45
2018-12-09T13:29:47.740Z,99055.22
2018-12-09T13:32:15.211Z,99058.55
2018-12-09T13:34:44.295Z,99073.08
2018-12-09T13:37:11.831Z,99072.23
2018-12-09T13:39:39.394Z,99082.56
2018-12-09T13:42:08.447Z,99090.70
2018-12-09T13:44:36.011Z,99082.68
2018-12-09T13:47:04.507Z,99097.26
2018-12-09T13:49:32.013Z,99101.00
2018-12-09T13:52:01.207Z,99111.20
2018-12-09T13:54:28.765Z,99120.58
2018-12-09T13:56:56.382Z,99124.06
2018-12-09T13:59:24.767Z,99132.91
2018-12-09T14:01:53.299Z,99131.02
2018-12-09T14:04:21.037Z,99156.09
2018-12-09T14:06:52.296Z,99163.34
2018-12-09T14:09:19.912Z,99173.70
2018-12-09T14:11:47.619Z,99166.31
2018-12-09T14:14:15.131Z,99171.53
2018-12-09T14:16:43.683Z,99176.70
2018-12-09T14:19:11.203Z,99177.48
2018-12-09T14:21:38.869Z,99184.61
2018-12-09T14:24:06.464Z,99186.73
2018-12-09T14:26:35.060Z,99205.09
2018-12-09T14:29:02.654Z,99195.57
2018-12-09T14:31:32.140Z,99205.78
2018-12-09T14:34:01.900Z,99209.73
2018-12-09T14:36:29.563Z,99207.59
2018-12-09T14:38:57.236Z,99209.38
2018-12-09T14:41:26.739Z,99223.03
2018-12-09T14:43:55.064Z,99229.49
2018-12-09T14:46:22.698Z,99244.52
2018-12-09T14:48:50.336Z,99242.36
2018-12-09T14:51:17.940Z,99256.90
2018-12-09T14:53:45.481Z,99255.60
2018-12-09T14:56:13.977Z,99269.11
2018-12-09T14:58:42.924Z,99273.33
2018-12-09T15:01:11.162Z,99287.52
2018-12-09T15:03:38.756Z,99284.99
2018-12-09T15:06:06.351Z,99299.00
2018-12-09T15:08:33.910Z,99299.06
2018-12-09T15:11:01.668Z,99303.83
2018-12-09T15:13:29.500Z,99302.56
2018-12-09T15:15:57.223Z,99307.67
2018-12-09T15:18:25.138Z,99316.34
2018-12-09T15:20:52.676Z,99319.38
2018-12-09T15:23:23.378Z,99322.36
2018-12-09T15:25:51.136Z,99320.72
2018-12-09T15:28:18.732Z,99322.06
2018-12-09T15:30:47.505Z,99345.53
2018-12-09T15:33:15.070Z,99353.63
2018-12-09T15:35:42.769Z,99358.69
2018-12-09T15:38:11.256Z,99362.52
2018-12-09T15:40:46.466Z,99363.33
2018-12-09T15:43:18.620Z,99366.05
2018-12-09T15:45:46.241Z,99363.92
2018-12-09T15:48:15.325Z,99375.07
2018-12-09T15:50:43.007Z,99377.52
2018-12-09T15:53:10.587Z,99383.59
2018-12-09T15:55:39.061Z,99391.13
2018-12-09T15:58:06.667Z,99380.19
2018-12-09T16:00:35.409Z,99393.41
2018-12-09T16:03:03.043Z,99400.23
2018-12-09T16:05:30.587Z,99417.20
2018-12-09T16:07:58.862Z,99414.70
2018-12-09T16:10:26.367Z,99416.41
2018-12-09T16:12:54.187Z,99418.48
2018-12-09T16:15:22.746Z,99424.07
2018-12-09T16:17:50.237Z,99433.89
2018-12-09T16:20:17.814Z,99445.41
2018-12-09T16:22:45.353Z,99441.20
2018-12-09T16:25:13.341Z,99446.42
2018-12-09T16:27:42.132Z,99451.15
2018-12-09T16:30:09.647Z,99455.48
2018-12-09T16:32:38.727Z,99461.02
2018-12-09T16:35:07.821Z,99459.73
2018-12-09T16:37:36.320Z,99475.99
2018-12-09T16:40:04.639Z,99466.56
2018-12-09T16:42:32.189Z,99475.56
2018-12-09T16:44:59.814Z,99477.75
2018-12-09T16:47:27.318Z,99487.13
2018-12-09T16:49:54.925Z,99493.52
2018-12-09T16:52:25.470Z,99500.77
2018-12-09T16:54:53.017Z,99502.91
2018-12-09T16:57:21.486Z,99521.25
2018-12-09T16:59:50.880Z,99535.33
2018-12-09T17:02:19.181Z,99548.54
2018-12-09T17:04:46.761Z,99546.88
2018-12-09T17:07:14.538Z,99562.23
2018-12-09T17:09:42.141Z,99565.22
2018-12-09T17:12:10.047Z,99562.23
2018-12-09T17:14:39.523Z,99569.91
2018-12-09T17:17:08.832Z,99570.76
2018-12-09T17:19:37.791Z,99573.75
2018-12-09T17:22:06.406Z,99592.08
2018-12-09T17:24:33.968Z,99588.70
2018-12-09T17:27:02.453Z,99600.18
2018-12-09T17:29:30.124Z,99602.69
2018-12-09T17:31:58.845Z,99609.91
2018-12-09T17:34:26.381Z,99624.88
2018-12-09T17:36:54.148Z,99630.42
2018-12-09T17:39:21.718Z,99639.84
2018-12-09T17:41:49.328Z,99662.08
2018-12-09T17:44:16.844Z,99651.39
2018-12-09T17:46:44.400Z,99663.72
2018-12-09T17:49:12.644Z,99682.05
2018-12-09T17:51:40.279Z,99679.95
2018-12-09T17:54:09.938Z,99665.56
2018-12-09T17:56:37.497Z,99685.56
2018-12-09T17:59:05.871Z,99678.77
2018-12-09T18:01:33.657Z,99683.43
2018-12-09T18:04:01.634Z,99698.45
2018-12-09T18:06:29.230Z,99696.71
2018-12-09T18:08:56.837Z,99698.45
2018-12-09T18:11:24.624Z,99704.41
2018-12-09T18:13:53.714Z,99708.64
2018-12-09T18:16:22.123Z,99714.61
2018-12-09T18:18:49.738Z,99720.21
2018-12-09T18:21:17.341Z,99724.50
2018-12-09T18:23:44.906Z,99737.26
2018-12-09T18:26:12.517Z,99736.41
2018-12-09T18:28:40.125Z,99750.93
2018-12-09T18:31:08.090Z,99749.65
2018-12-09T18:33:35.864Z,99749.19
2018-12-09T18:36:04.261Z,99761.98
2018-12-09T18:38:31.875Z,99757.32
2018-12-09T18:40:59.822Z,99767.55
2018-12-09T18:43:28.261Z,99783.34
2018-12-09T18:45:57.455Z,99790.97
2018-12-09T18:48:25.032Z,99786.28
2018-12-09T18:50:53.502Z,99798.69
2018-12-09T18:53:21.098Z,99808.52
2018-12-09T18:55:48.759Z,99820.84
2018-12-09T18:58:16.276Z,99822.55
2018-12-09T19:00:43.782Z,99823.41
2018-12-09T19:03:11.600Z,99827.20
2018-12-09T19:05:39.231Z,99831.04
2018-12-09T19:08:06.920Z,99842.56
2018-12-09T19:10:34.985Z,99852.00
2018-12-09T19:13:02.670Z,99854.94
2018-12-09T19:15:31.075Z,99860.89
2018-12-09T19:17:58.604Z,99862.18
2018-12-09T19:20:26.123Z,99866.02
2018-12-09T19:22:53.745Z,99873.71
2018-12-09T19:25:23.221Z,99884.81
2018-12-09T19:27:51.385Z,99881.02
2018-12-09T19:30:19.349Z,99884.84
2018-12-09T19:32:47.526Z,99885.28
2018-12-09T19:35:15.132Z,99900.61
2018-12-09T19:37:42.662Z,99909.53
2018-12-09T19:40:10.272Z,99920.63
2018-12-09T19:42:37.771Z,99923.58
2018-12-09T19:45:05.551Z,99921.45
2018-12-09T19:47:33.215Z,99924.41
2018-12-09T19:50:00.811Z,99935.52
2018-12-09T19:52:28.436Z,99934.21
2018-12-09T19:54:55.941Z,99935.94
2018-12-09T19:57:23.544Z,99946.17
2018-12-09T19:59:51.080Z,99953.39
2018-12-09T20:02:18.681Z,99957.23
2018-12-09T20:04:47.023Z,99970.05
2018-12-09T20:07:14.712Z,99972.19
2018-12-09T20:09:42.239Z,99978.13
2018-12-09T20:12:09.806Z,99973.89
2018-12-09T20:14:37.359Z,99994.36
2018-12-09T20:17:05.106Z,99996.06
2018-12-09T20:19:33.313Z,99998.64
2018-12-09T20:22:00.854Z,100005.47
2018-12-09T20:24:28.445Z,100018.69
2018-12-09T20:26:56.041Z,100015.69
2018-12-09T20:29:23.556Z,100022.09
2018-12-09T20:31:51.147Z,100031.90
2018-12-09T20:34:19.280Z,100041.27
2018-12-09T20:36:47.131Z,100033.61
2018-12-09T20:39:14.813Z,100047.20
2018-12-09T20:41:42.851Z,100046.35
2018-12-09T20:44:10.369Z,100043.39
2018-12-09T20:46:38.713Z,100071.48
2018-12-09T20:49:06.344Z,100065.97
2018-12-09T20:51:36.066Z,100068.53
2018-12-09T20:54:04.575Z,100080.02
2018-12-09T20:56:32.176Z,100084.25
2018-12-09T20:58:59.713Z,100087.66
2018-12-09T21:01:28.461Z,100094.92
2018-12-09T21:03:56.086Z,100098.32
2018-12-09T21:06:23.616Z,100099.16
2018-12-09T21:08:51.147Z,100098.33
2018-12-09T21:11:18.748Z,100106.41
2018-12-09T21:13:46.641Z,100107.67
2018-12-09T21:16:14.198Z,100113.64
2018-12-09T21:18:41.756Z,100133.59
2018-12-09T21:21:09.346Z,100117.43
2018-12-09T21:23:36.932Z,100121.27
2018-12-09T21:26:04.482Z,100123.42
2018-12-09T21:28:32.235Z,100138.30
2018-12-09T21:31:00.732Z,100141.70
2018-12-09T21:33:28.202Z,100137.46
2018-12-09T21:35:55.742Z,100149.35
2018-12-09T21:38:23.970Z,100155.30
2018-12-09T21:40:51.933Z,100149.75
2018-12-09T21:43:19.554Z,100158.27
2018-12-09T21:45:49.672Z,100160.39
2018-12-09T21:48:17.265Z,100162.93
2018-12-09T21:50:44.977Z,100170.59
2018-12-09T21:53:13.484Z,100161.22
2018-12-09T21:55:41.014Z,100171.42
2018-12-09T21:58:08.754Z,100170.56
2018-12-09T22:00:37.939Z,100178.63
2018-12-09T22:03:05.830Z,100177.39
2018-12-09T22:05:34.769Z,100186.33
2018-12-09T22:08:02.481Z,100191.81
2018-12-09T22:10:30.717Z,100183.33
2018-12-09T22:12:58.308Z,100192.66
2018-12-09T22:15:26.597Z,100190.09
2018-12-09T22:17:54.676Z,100202.86
2018-12-09T22:20:23.298Z,100202.00
2018-12-09T22:22:50.903Z,100199.47
2018-12-09T22:25:18.530Z,100217.30
2018-12-09T22:27:46.081Z,100220.69
2018-12-09T22:30:16.582Z,100213.91
2018-12-09T22:32:44.108Z,100242.39
2018-12-09T22:35:12.424Z,100224.94
2018-12-09T22:37:40.524Z,100232.17
2018-12-09T22:42:55.409Z,100255.11
2018-12-09T22:45:23.949Z,100257.65
2018-12-09T22:47:51.444Z,100256.36
2018-12-09T22:50:18.993Z,100260.61
2018-12-09T22:52:46.611Z,100267.86
2018-12-09T22:55:14.550Z,100274.66
2018-12-09T22:57:42.973Z,100277.67
2018-12-09T23:00:18.383Z,100275.17
2018-12-09T23:02:51.577Z,100290.91
2018-12-09T23:05:22.712Z,100296.00
2018-12-09T23:07:52.767Z,100307.91
2018-12-09T23:10:21.130Z,100298.92
2018-12-09T23:12:48.784Z,100300.64
2018-12-09T23:15:16.427Z,100307.87
2018-12-09T23:17:43.926Z,100323.59
2018-12-09T23:20:13.261Z,100317.63
2018-12-09T23:22:41.641Z,100324.02
2018-12-09T23:25:09.265Z,100336.79
2018-12-09T23:27:37.741Z,100344.42
2018-12-09T23:30:06.624Z,100342.27
2018-12-09T23:32:34.239Z,100346.90
2018-12-09T23:35:02.394Z,100361.33
2018-12-09T23:37:29.979Z,100354.15
2018-12-09T23:39:58.201Z,100349.09
2018-12-09T23:42:26.502Z,100360.48
2018-12-09T23:44:53.999Z,100359.17
2018-12-09T23:47:21.534Z,100363.41
2018-12-09T23:49:49.034Z,100372.30
2018-12-09T23:52:16.584Z,100372.27
2018-12-09T23:54:44.140Z,100381.20
2018-12-09T23:57:11.769Z,100384.14
2018-12-09T23:59:39.244Z,100383.80
